sensor_id;sensor_type;location;lat;lon;timestamp;pressure;altitude;pressure_sealevel;temperature;humidity
14232;BME280;7200;52.194;9.900;2023-04-06T00:01:10;100646.78;;;3.70;100.00
14232;BME280;7200;52.194;9.900;2023-04-06T00:03:36;100594.66;;;3.64;100.00
14232;BME280;7200;52.194;9.900;2023-04-06T00:06:02;100581.56;;;3.73;100.00
14232;BME280;7200;52.194;9.900;2023-04-06T00:08:28;100549.44;;;3.60;100.00
14232;BME280;7200;52.194;9.900;2023-04-06T00:10:53;100584.16;;;3.73;100.00
14232;BME280;7200;52.194;9.900;2023-04-06T00:13:19;100551.16;;;3.61;100.00
14232;BME280;7200;52.194;9.900;2023-04-06T00:15:45;100501.84;;;3.24;100.00
14232;BME280;7200;52.194;9.900;2023-04-06T00:18:10;100482.00;;;2.94;100.00
14232;BME280;7200;52.194;9.900;2023-04-06T00:20:36;100569.63;;;3.18;100.00
14232;BME280;7200;52.194;9.900;2023-04-06T00:23:01;100633.81;;;3.51;100.00
14232;BME280;7200;52.194;9.900;2023-04-06T00:25:26;100612.09;;;3.53;100.00
14232;BME280;7200;52.194;9.900;2023-04-06T00:27:52;100591.22;;;3.48;100.00
14232;BME280;7200;52.194;9.900;2023-04-06T00:30:17;100542.66;;;3.30;100.00
14232;BME280;7200;52.194;9.900;2023-04-06T00:32:42;100579.13;;;3.36;100.00
14232;BME280;7200;52.194;9.900;2023-04-06T00:35:08;100598.19;;;3.46;100.00
14232;BME280;7200;52.194;9.900;2023-04-06T00:37:33;100605.09;;;3.59;100.00
14232;BME280;7200;52.194;9.900;2023-04-06T00:39:59;100598.97;;;3.68;100.00
14232;BME280;7200;52.194;9.900;2023-04-06T00:42:25;100574.59;;;3.74;100.00
14232;BME280;7200;52.194;9.900;2023-04-06T00:45:00;100585.78;;;3.88;100.00
14232;BME280;7200;52.194;9.900;2023-04-06T00:47:26;100569.25;;;3.89;100.00
14232;BME280;7200;52.194;9.900;2023-04-06T00:49:53;100582.19;;;4.06;100.00
14232;BME280;7200;52.194;9.900;2023-04-06T00:52:19;100541.38;;;3.94;100.00
14232;BME280;7200;52.194;9.900;2023-04-06T00:54:44;100519.63;;;3.94;100.00
14232;BME280;7200;52.194;9.900;2023-04-06T00:57:13;100491.88;;;3.82;100.00
14232;BME280;7200;52.194;9.900;2023-04-06T00:59:39;100442.47;;;3.62;100.00
14232;BME280;7200;52.194;9.900;2023-04-06T01:02:05;100408.78;;;3.29;100.00
14232;BME280;7200;52.194;9.900;2023-04-06T01:04:31;100450.56;;;3.22;100.00
14232;BME280;7200;52.194;9.900;2023-04-06T01:06:57;100463.59;;;3.25;100.00
14232;BME280;7200;52.194;9.900;2023-04-06T01:09:23;100524.34;;;3.38;100.00
14232;BME280;7200;52.194;9.900;2023-04-06T01:11:48;100484.50;;;3.16;100.00
14232;BME280;7200;52.194;9.900;2023-04-06T01:14:13;100462.91;;;2.87;100.00
14232;BME280;7200;52.194;9.900;2023-04-06T01:16:40;100548.78;;;3.18;100.00
14232;BME280;7200;52.194;9.900;2023-04-06T01:19:11;100547.06;;;3.19;100.00
14232;BME280;7200;52.194;9.900;2023-04-06T01:21:37;100505.41;;;3.00;100.00
14232;BME280;7200;52.194;9.900;2023-04-06T01:24:04;100495.00;;;2.99;100.00
14232;BME280;7200;52.194;9.900;2023-04-06T01:26:30;100543.63;;;3.07;100.00
14232;BME280;7200;52.194;9.900;2023-04-06T01:28:56;100515.00;;;2.95;100.00
14232;BME280;7200;52.194;9.900;2023-04-06T01:31:22;100531.47;;;3.02;100.00
14232;BME280;7200;52.194;9.900;2023-04-06T01:33:47;100550.59;;;3.04;100.00
14232;BME280;7200;52.194;9.900;2023-04-06T01:36:13;100469.97;;;2.64;100.00
14232;BME280;7200;52.194;9.900;2023-04-06T01:38:39;100439.66;;;2.30;100.00
14232;BME280;7200;52.194;9.900;2023-04-06T01:41:04;100471.75;;;2.29;100.00
14232;BME280;7200;52.194;9.900;2023-04-06T01:43:30;100509.94;;;2.38;100.00
14232;BME280;7200;52.194;9.900;2023-04-06T01:45:55;100537.72;;;2.45;100.00
14232;BME280;7200;52.194;9.900;2023-04-06T01:48:20;100515.16;;;2.38;100.00
14232;BME280;7200;52.194;9.900;2023-04-06T01:50:46;100503.00;;;2.39;100.00
14232;BME280;7200;52.194;9.900;2023-04-06T01:53:11;100579.31;;;2.73;100.00
14232;BME280;7200;52.194;9.900;2023-04-06T01:55:37;100568.88;;;2.87;100.00
14232;BME280;7200;52.194;9.900;2023-04-06T01:58:02;100571.44;;;3.05;100.00
14232;BME280;7200;52.194;9.900;2023-04-06T02:00:28;100521.06;;;3.00;100.00
14232;BME280;7200;52.194;9.900;2023-04-06T02:02:53;100492.47;;;2.80;100.00
14232;BME280;7200;52.194;9.900;2023-04-06T02:05:19;100462.16;;;2.53;100.00
14232;BME280;7200;52.194;9.900;2023-04-06T02:07:45;100467.38;;;2.53;100.00
14232;BME280;7200;52.194;9.900;2023-04-06T02:10:11;100461.34;;;2.42;100.00
14232;BME280;7200;52.194;9.900;2023-04-06T02:12:37;100492.56;;;2.46;100.00
14232;BME280;7200;52.194;9.900;2023-04-06T02:15:02;100458.78;;;2.25;100.00
14232;BME280;7200;52.194;9.900;2023-04-06T02:17:28;100464.84;;;2.19;100.00
14232;BME280;7200;52.194;9.900;2023-04-06T02:19:53;100509.97;;;2.32;100.00
14232;BME280;7200;52.194;9.900;2023-04-06T02:22:19;100508.22;;;2.29;100.00
14232;BME280;7200;52.194;9.900;2023-04-06T02:24:44;100545.50;;;2.50;100.00
14232;BME280;7200;52.194;9.900;2023-04-06T02:27:10;100499.53;;;2.40;100.00
14232;BME280;7200;52.194;9.900;2023-04-06T02:29:35;100516.84;;;2.48;100.00
14232;BME280;7200;52.194;9.900;2023-04-06T02:32:01;100556.75;;;2.72;100.00
14232;BME280;7200;52.194;9.900;2023-04-06T02:34:26;100525.50;;;2.70;100.00
14232;BME280;7200;52.194;9.900;2023-04-06T02:36:51;100489.06;;;2.50;100.00
14232;BME280;7200;52.194;9.900;2023-04-06T02:39:17;100463.06;;;2.35;100.00
14232;BME280;7200;52.194;9.900;2023-04-06T02:41:42;100491.72;;;2.38;100.00
14232;BME280;7200;52.194;9.900;2023-04-06T02:44:08;100499.50;;;2.44;100.00
14232;BME280;7200;52.194;9.900;2023-04-06T02:46:34;100469.16;;;2.28;100.00
14232;BME280;7200;52.194;9.900;2023-04-06T02:48:59;100510.81;;;2.40;100.00
14232;BME280;7200;52.194;9.900;2023-04-06T02:51:26;100517.75;;;2.49;100.00
14232;BME280;7200;52.194;9.900;2023-04-06T02:53:51;100510.78;;;2.59;100.00
14232;BME280;7200;52.194;9.900;2023-04-06T02:56:16;100548.06;;;2.81;100.00
14232;BME280;7200;52.194;9.900;2023-04-06T02:58:42;100541.03;;;2.93;100.00
14232;BME280;7200;52.194;9.900;2023-04-06T03:01:07;100518.44;;;3.03;100.00
14232;BME280;7200;52.194;9.900;2023-04-06T03:03:32;100478.47;;;3.07;100.00
14232;BME280;7200;52.194;9.900;2023-04-06T03:05:58;100452.34;;;3.17;100.00
14232;BME280;7200;52.194;9.900;2023-04-06T03:08:24;100421.91;;;3.19;100.00
14232;BME280;7200;52.194;9.900;2023-04-06T03:10:49;100389.75;;;3.18;100.00
14232;BME280;7200;52.194;9.900;2023-04-06T03:13:15;100374.09;;;3.20;100.00
14232;BME280;7200;52.194;9.900;2023-04-06T03:15:40;100344.56;;;3.21;100.00
14232;BME280;7200;52.194;9.900;2023-04-06T03:18:05;100385.22;;;3.45;100.00
14232;BME280;7200;52.194;9.900;2023-04-06T03:20:31;100359.16;;;3.42;100.00
14232;BME280;7200;52.194;9.900;2023-04-06T03:22:56;100361.75;;;3.42;100.00
14232;BME280;7200;52.194;9.900;2023-04-06T03:25:21;100372.16;;;3.46;100.00
14232;BME280;7200;52.194;9.900;2023-04-06T03:27:47;100360.06;;;3.36;100.00
14232;BME280;7200;52.194;9.900;2023-04-06T03:30:12;100370.56;;;3.31;100.00
14232;BME280;7200;52.194;9.900;2023-04-06T03:32:37;100347.13;;;3.25;100.00
14232;BME280;7200;52.194;9.900;2023-04-06T03:35:03;100347.97;;;3.27;100.00
14232;BME280;7200;52.194;9.900;2023-04-06T03:37:29;100352.25;;;3.35;100.00
14232;BME280;7200;52.194;9.900;2023-04-06T03:39:54;100344.44;;;3.33;100.00
14232;BME280;7200;52.194;9.900;2023-04-06T03:42:19;100343.63;;;3.28;100.00
14232;BME280;7200;52.194;9.900;2023-04-06T03:44:45;100386.16;;;3.35;100.00
14232;BME280;7200;52.194;9.900;2023-04-06T03:47:10;100381.00;;;3.27;100.00
14232;BME280;7200;52.194;9.900;2023-04-06T03:49:35;100383.59;;;3.27;100.00
14232;BME280;7200;52.194;9.900;2023-04-06T03:52:01;100361.09;;;3.15;100.00
14232;BME280;7200;52.194;9.900;2023-04-06T03:54:26;100415.78;;;3.24;100.00
14232;BME280;7200;52.194;9.900;2023-04-06T03:56:51;100399.31;;;3.22;100.00
14232;BME280;7200;52.194;9.900;2023-04-06T03:59:17;100369.88;;;3.03;100.00
14232;BME280;7200;52.194;9.900;2023-04-06T04:01:42;100401.16;;;3.03;100.00
14232;BME280;7200;52.194;9.900;2023-04-06T04:04:07;100363.00;;;2.90;100.00
14232;BME280;7200;52.194;9.900;2023-04-06T04:06:33;100370.84;;;2.84;100.00
14232;BME280;7200;52.194;9.900;2023-04-06T04:08:58;100391.78;;;2.71;100.00
14232;BME280;7200;52.194;9.900;2023-04-06T04:11:23;100397.84;;;2.72;100.00
14232;BME280;7200;52.194;9.900;2023-04-06T04:13:49;100389.19;;;2.67;100.00
14232;BME280;7200;52.194;9.900;2023-04-06T04:16:14;100417.03;;;2.52;100.00
14232;BME280;7200;52.194;9.900;2023-04-06T04:18:39;100393.63;;;2.40;100.00
14232;BME280;7200;52.194;9.900;2023-04-06T04:21:05;100377.25;;;2.09;100.00
14232;BME280;7200;52.194;9.900;2023-04-06T04:23:30;100441.44;;;2.21;100.00
14232;BME280;7200;52.194;9.900;2023-04-06T04:25:55;100447.50;;;2.20;100.00
14232;BME280;7200;52.194;9.900;2023-04-06T04:28:22;100448.34;;;2.20;100.00
14232;BME280;7200;52.194;9.900;2023-04-06T04:30:47;100481.34;;;2.23;100.00
14232;BME280;7200;52.194;9.900;2023-04-06T04:33:13;100483.06;;;2.18;100.00
14232;BME280;7200;52.194;9.900;2023-04-06T04:35:38;100511.69;;;2.27;100.00
14232;BME280;7200;52.194;9.900;2023-04-06T04:38:03;100462.28;;;2.01;100.00
14232;BME280;7200;52.194;9.900;2023-04-06T04:40:29;100464.00;;;1.95;100.00
14232;BME280;7200;52.194;9.900;2023-04-06T04:42:54;100494.34;;;2.01;100.00
14232;BME280;7200;52.194;9.900;2023-04-06T04:45:19;100470.94;;;1.83;100.00
14232;BME280;7200;52.194;9.900;2023-04-06T04:47:45;100480.50;;;1.76;100.00
14232;BME280;7200;52.194;9.900;2023-04-06T04:50:10;100535.09;;;1.88;100.00
14232;BME280;7200;52.194;9.900;2023-04-06T04:52:37;100554.22;;;2.06;100.00
14232;BME280;7200;52.194;9.900;2023-04-06T04:55:02;100523.84;;;1.99;100.00
14232;BME280;7200;52.194;9.900;2023-04-06T04:57:28;100489.16;;;1.87;100.00
14232;BME280;7200;52.194;9.900;2023-04-06T04:59:53;100516.06;;;1.83;100.00
14232;BME280;7200;52.194;9.900;2023-04-06T05:02:19;100526.44;;;1.82;100.00
14232;BME280;7200;52.194;9.900;2023-04-06T05:04:44;100562.03;;;2.04;100.00
14232;BME280;7200;52.194;9.900;2023-04-06T05:07:09;100523.00;;;1.90;100.00
14232;BME280;7200;52.194;9.900;2023-04-06T05:09:35;100524.72;;;1.85;100.00
14232;BME280;7200;52.194;9.900;2023-04-06T05:12:01;100550.72;;;1.91;100.00
14232;BME280;7200;52.194;9.900;2023-04-06T05:14:27;100546.41;;;1.98;100.00
14232;BME280;7200;52.194;9.900;2023-04-06T05:16:53;100572.44;;;2.18;100.00
14232;BME280;7200;52.194;9.900;2023-04-06T05:19:19;100581.97;;;2.44;100.00
14232;BME280;7200;52.194;9.900;2023-04-06T05:21:44;100553.31;;;2.58;100.00
14232;BME280;7200;52.194;9.900;2023-04-06T05:24:10;100518.50;;;2.82;100.00
14232;BME280;7200;52.194;9.900;2023-04-06T05:26:35;100497.63;;;2.94;100.00
14232;BME280;7200;52.194;9.900;2023-04-06T05:29:01;100458.47;;;3.05;100.00
14232;BME280;7200;52.194;9.900;2023-04-06T05:31:26;100425.44;;;3.08;100.00
14232;BME280;7200;52.194;9.900;2023-04-06T05:33:52;100437.50;;;3.26;100.00
14232;BME280;7200;52.194;9.900;2023-04-06T05:36:17;100428.72;;;3.35;100.00
14232;BME280;7200;52.194;9.900;2023-04-06T05:38:43;100431.34;;;3.37;100.00
14232;BME280;7200;52.194;9.900;2023-04-06T05:41:08;100468.63;;;3.49;100.00
14232;BME280;7200;52.194;9.900;2023-04-06T05:43:33;100498.13;;;3.62;100.00
14232;BME280;7200;52.194;9.900;2023-04-06T05:45:59;100521.53;;;3.70;100.00
14232;BME280;7200;52.194;9.900;2023-04-06T05:48:24;100524.06;;;3.82;100.00
14232;BME280;7200;52.194;9.900;2023-04-06T05:50:50;100511.88;;;3.84;100.00
14232;BME280;7200;52.194;9.900;2023-04-06T05:53:16;100502.38;;;3.76;100.00
14232;BME280;7200;52.194;9.900;2023-04-06T05:55:41;100478.94;;;3.66;100.00
14232;BME280;7200;52.194;9.900;2023-04-06T05:58:06;100508.38;;;3.84;100.00
14232;BME280;7200;52.194;9.900;2023-04-06T06:00:32;100509.31;;;3.77;100.00
14232;BME280;7200;52.194;9.900;2023-04-06T06:02:57;100541.41;;;3.89;100.00
14232;BME280;7200;52.194;9.900;2023-04-06T06:05:23;100520.50;;;3.93;100.00
14232;BME280;7200;52.194;9.900;2023-04-06T06:07:48;100516.06;;;4.07;100.00
14232;BME280;7200;52.194;9.900;2023-04-06T06:10:14;100488.97;;;4.16;100.00
14232;BME280;7200;52.194;9.900;2023-04-06T06:12:39;100456.72;;;4.21;100.00
14232;BME280;7200;52.194;9.900;2023-04-06T06:15:05;100432.28;;;4.28;100.00
14232;BME280;7200;52.194;9.900;2023-04-06T06:17:31;100432.22;;;4.35;100.00
14232;BME280;7200;52.194;9.900;2023-04-06T06:19:56;100426.88;;;4.45;100.00
14232;BME280;7200;52.194;9.900;2023-04-06T06:22:21;100435.44;;;4.58;100.00
14232;BME280;7200;52.194;9.900;2023-04-06T06:24:46;100438.78;;;4.71;100.00
14232;BME280;7200;52.194;9.900;2023-04-06T06:27:12;100443.06;;;4.77;100.00
14232;BME280;7200;52.194;9.900;2023-04-06T06:29:37;100454.25;;;4.88;100.00
14232;BME280;7200;52.194;9.900;2023-04-06T06:32:03;100401.47;;;4.60;100.00
14232;BME280;7200;52.194;9.900;2023-04-06T06:34:28;100438.72;;;4.74;100.00
14232;BME280;7200;52.194;9.900;2023-04-06T06:36:54;100484.59;;;4.98;100.00
14232;BME280;7200;52.194;9.900;2023-04-06T06:39:20;100477.50;;;5.06;100.00
14232;BME280;7200;52.194;9.900;2023-04-06T06:41:46;100468.91;;;5.00;100.00
14232;BME280;7200;52.194;9.900;2023-04-06T06:44:11;100483.63;;;5.07;100.00
14232;BME280;7200;52.194;9.900;2023-04-06T06:46:36;100500.91;;;5.19;100.00
14232;BME280;7200;52.194;9.900;2023-04-06T06:49:02;100520.69;;;5.38;100.00
14232;BME280;7200;52.194;9.900;2023-04-06T06:51:28;100536.03;;;5.64;100.00
14232;BME280;7200;52.194;9.900;2023-04-06T06:53:53;100549.66;;;5.88;100.00
14232;BME280;7200;52.194;9.900;2023-04-06T06:56:18;100549.13;;;6.23;100.00
14232;BME280;7200;52.194;9.900;2023-04-06T06:58:44;100514.88;;;6.33;100.00
14232;BME280;7200;52.194;9.900;2023-04-06T07:01:09;100439.31;;;6.11;100.00
14232;BME280;7200;52.194;9.900;2023-04-06T07:03:34;100499.22;;;6.30;100.00
14232;BME280;7200;52.194;9.900;2023-04-06T07:06:00;100454.50;;;6.40;100.00
14232;BME280;7200;52.194;9.900;2023-04-06T07:08:25;100510.44;;;6.85;100.00
14232;BME280;7200;52.194;9.900;2023-04-06T07:10:51;100497.97;;;6.96;100.00
14232;BME280;7200;52.194;9.900;2023-04-06T07:13:21;100410.75;;;6.86;100.00
14232;BME280;7200;52.194;9.900;2023-04-06T07:15:48;100505.91;;;7.35;100.00
14232;BME280;7200;52.194;9.900;2023-04-06T07:18:14;100436.88;;;7.31;100.00
14232;BME280;7200;52.194;9.900;2023-04-06T07:20:39;100413.94;;;7.38;100.00
14232;BME280;7200;52.194;9.900;2023-04-06T07:23:05;100424.97;;;7.54;100.00
14232;BME280;7200;52.194;9.900;2023-04-06T07:25:30;100341.88;;;7.51;100.00
14232;BME280;7200;52.194;9.900;2023-04-06T07:27:56;100332.78;;;7.65;100.00
14232;BME280;7200;52.194;9.900;2023-04-06T07:30:22;100327.03;;;7.83;99.00
14232;BME280;7200;52.194;9.900;2023-04-06T07:32:48;100284.25;;;7.79;97.27
14232;BME280;7200;52.194;9.900;2023-04-06T07:35:14;100297.94;;;7.91;96.30
14232;BME280;7200;52.194;9.900;2023-04-06T07:37:39;100310.56;;;8.09;95.02
14232;BME280;7200;52.194;9.900;2023-04-06T07:40:05;100292.44;;;8.31;92.56
14232;BME280;7200;52.194;9.900;2023-04-06T07:42:31;100276.50;;;8.36;91.95
14232;BME280;7200;52.194;9.900;2023-04-06T07:44:58;100243.91;;;8.43;89.97
14232;BME280;7200;52.194;9.900;2023-04-06T07:47:23;100282.97;;;8.55;90.42
14232;BME280;7200;52.194;9.900;2023-04-06T07:49:48;100288.72;;;8.68;89.61
14232;BME280;7200;52.194;9.900;2023-04-06T07:52:14;100269.88;;;8.82;87.90
14232;BME280;7200;52.194;9.900;2023-04-06T07:54:40;100278.38;;;8.90;87.39
14232;BME280;7200;52.194;9.900;2023-04-06T07:57:06;100261.44;;;8.99;86.37
14232;BME280;7200;52.194;9.900;2023-04-06T07:59:33;100245.06;;;9.18;84.27
14232;BME280;7200;52.194;9.900;2023-04-06T08:01:58;100277.69;;;9.12;86.20
14232;BME280;7200;52.194;9.900;2023-04-06T08:04:24;100355.94;;;9.33;87.92
14232;BME280;7200;52.194;9.900;2023-04-06T08:06:49;100271.41;;;9.16;86.73
14232;BME280;7200;52.194;9.900;2023-04-06T08:09:14;100292.31;;;9.21;86.53
14232;BME280;7200;52.194;9.900;2023-04-06T08:11:40;100285.34;;;9.20;86.69
14232;BME280;7200;52.194;9.900;2023-04-06T08:14:05;100302.44;;;9.33;85.83
14232;BME280;7200;52.194;9.900;2023-04-06T08:16:31;100348.47;;;9.48;86.57
14232;BME280;7200;52.194;9.900;2023-04-06T08:18:56;100257.94;;;9.50;83.19
14232;BME280;7200;52.194;9.900;2023-04-06T08:21:21;100344.06;;;9.73;84.69
14232;BME280;7200;52.194;9.900;2023-04-06T08:23:47;100313.16;;;9.79;83.35
14232;BME280;7200;52.194;9.900;2023-04-06T08:26:12;100345.28;;;9.90;84.16
14232;BME280;7200;52.194;9.900;2023-04-06T08:28:38;100262.59;;;9.92;81.37
14232;BME280;7200;52.194;9.900;2023-04-06T08:31:06;100225.03;;;9.87;79.28
14232;BME280;7200;52.194;9.900;2023-04-06T08:33:32;100284.63;;;10.15;79.29
14232;BME280;7200;52.194;9.900;2023-04-06T08:36:07;100350.50;;;10.42;79.31
14232;BME280;7200;52.194;9.900;2023-04-06T08:38:32;100353.44;;;10.56;79.42
14232;BME280;7200;52.194;9.900;2023-04-06T08:40:58;100390.16;;;10.86;78.90
14232;BME280;7200;52.194;9.900;2023-04-06T08:43:24;100456.16;;;11.09;80.32
14232;BME280;7200;52.194;9.900;2023-04-06T08:45:52;100322.72;;;11.01;77.44
14232;BME280;7200;52.194;9.900;2023-04-06T08:48:17;100259.53;;;10.96;75.62
14232;BME280;7200;52.194;9.900;2023-04-06T08:50:43;100241.28;;;11.12;72.84
14232;BME280;7200;52.194;9.900;2023-04-06T08:53:10;100220.44;;;11.06;72.20
14232;BME280;7200;52.194;9.900;2023-04-06T08:55:36;100329.38;;;11.32;74.05
14232;BME280;7200;52.194;9.900;2023-04-06T08:58:03;100351.53;;;11.49;74.02
14232;BME280;7200;52.194;9.900;2023-04-06T09:00:31;100305.03;;;11.45;72.88
14232;BME280;7200;52.194;9.900;2023-04-06T09:02:57;100351.28;;;11.56;74.12
14232;BME280;7200;52.194;9.900;2023-04-06T09:05:24;100304.56;;;11.77;71.17
14232;BME280;7200;52.194;9.900;2023-04-06T09:07:50;100359.09;;;11.79;73.47
14232;BME280;7200;52.194;9.900;2023-04-06T09:10:16;100322.56;;;11.89;71.36
14232;BME280;7200;52.194;9.900;2023-04-06T09:12:42;100325.19;;;11.89;71.54
14232;BME280;7200;52.194;9.900;2023-04-06T09:15:20;100371.03;;;12.10;71.05
14232;BME280;7200;52.194;9.900;2023-04-06T09:17:46;100416.84;;;12.11;73.64
14232;BME280;7200;52.194;9.900;2023-04-06T09:20:12;100365.78;;;12.08;72.01
14232;BME280;7200;52.194;9.900;2023-04-06T09:22:38;100339.78;;;12.18;69.67
14232;BME280;7200;52.194;9.900;2023-04-06T09:25:04;100388.75;;;12.29;70.51
14232;BME280;7200;52.194;9.900;2023-04-06T09:27:34;100392.78;;;12.17;72.06
14232;BME280;7200;52.194;9.900;2023-04-06T09:30:08;100418.91;;;12.24;72.46
14232;BME280;7200;52.194;9.900;2023-04-06T09:35:14;100300.16;;;12.56;67.11
14232;BME280;7200;52.194;9.900;2023-04-06T09:37:40;100373.97;;;12.62;68.89
14232;BME280;7200;52.194;9.900;2023-04-06T09:40:07;100358.19;;;12.80;67.05
14232;BME280;7200;52.194;9.900;2023-04-06T09:42:33;100352.81;;;12.62;67.65
14232;BME280;7200;52.194;9.900;2023-04-06T09:45:00;100343.72;;;12.87;65.87
14232;BME280;7200;52.194;9.900;2023-04-06T09:47:26;100188.41;;;12.69;62.39
14232;BME280;7200;52.194;9.900;2023-04-06T09:49:56;100098.94;;;12.40;59.72
14232;BME280;7200;52.194;9.900;2023-04-06T09:52:30;100115.31;;;12.66;57.75
14232;BME280;7200;52.194;9.900;2023-04-06T09:55:00;100203.00;;;12.77;58.80
14232;BME280;7200;52.194;9.900;2023-04-06T10:02:27;100112.25;;;12.56;56.98
14232;BME280;7200;52.194;9.900;2023-04-06T10:05:09;100111.72;;;12.67;55.98
14232;BME280;7200;52.194;9.900;2023-04-06T10:07:35;100190.75;;;12.75;56.71
14232;BME280;7200;52.194;9.900;2023-04-06T10:10:02;100210.94;;;12.95;56.66
14232;BME280;7200;52.194;9.900;2023-04-06T10:12:28;100314.44;;;13.09;59.83
14232;BME280;7200;52.194;9.900;2023-04-06T10:14:53;100398.81;;;13.36;60.80
14232;BME280;7200;52.194;9.900;2023-04-06T10:17:19;100273.03;;;13.24;58.87
14232;BME280;7200;52.194;9.900;2023-04-06T10:19:51;100251.84;;;13.24;58.48
14232;BME280;7200;52.194;9.900;2023-04-06T10:22:25;100284.81;;;13.37;57.97
14232;BME280;7200;52.194;9.900;2023-04-06T10:24:53;100120.53;;;13.02;55.37
14232;BME280;7200;52.194;9.900;2023-04-06T10:27:28;100168.25;;;13.18;54.31
14232;BME280;7200;52.194;9.900;2023-04-06T10:29:54;100043.28;;;12.77;53.00
14232;BME280;7200;52.194;9.900;2023-04-06T10:32:37;100135.56;;;13.02;53.31
14232;BME280;7200;52.194;9.900;2023-04-06T10:35:10;100090.06;;;13.11;51.26
14232;BME280;7200;52.194;9.900;2023-04-06T10:38:01;100260.16;;;13.35;53.64
14232;BME280;7200;52.194;9.900;2023-04-06T10:40:27;100292.03;;;13.51;55.17
14232;BME280;7200;52.194;9.900;2023-04-06T10:42:54;100313.16;;;13.70;54.81
14232;BME280;7200;52.194;9.900;2023-04-06T10:45:30;100277.16;;;13.49;55.15
14232;BME280;7200;52.194;9.900;2023-04-06T10:47:56;100333.69;;;13.49;57.04
14232;BME280;7200;52.194;9.900;2023-04-06T10:50:22;100388.56;;;13.65;58.43
14232;BME280;7200;52.194;9.900;2023-04-06T10:52:59;100265.31;;;13.38;56.68
14232;BME280;7200;52.194;9.900;2023-04-06T10:55:25;100290.56;;;13.63;54.99
14232;BME280;7200;52.194;9.900;2023-04-06T10:57:51;100381.84;;;13.75;56.83
14232;BME280;7200;52.194;9.900;2023-04-06T11:00:17;100343.75;;;13.77;56.53
14232;BME280;7200;52.194;9.900;2023-04-06T11:02:42;100338.50;;;13.58;57.88
14232;BME280;7200;52.194;9.900;2023-04-06T11:05:08;100326.34;;;13.72;56.87
14232;BME280;7200;52.194;9.900;2023-04-06T11:07:36;100384.44;;;13.76;58.06
14232;BME280;7200;52.194;9.900;2023-04-06T11:10:02;100282.81;;;13.76;56.36
14232;BME280;7200;52.194;9.900;2023-04-06T11:12:28;100345.03;;;13.86;57.57
14232;BME280;7200;52.194;9.900;2023-04-06T11:14:55;100408.00;;;14.00;57.84
14232;BME280;7200;52.194;9.900;2023-04-06T11:17:27;100327.09;;;13.91;57.14
14232;BME280;7200;52.194;9.900;2023-04-06T11:19:52;100356.09;;;14.12;55.68
14232;BME280;7200;52.194;9.900;2023-04-06T11:22:18;100447.84;;;14.33;57.24
14232;BME280;7200;52.194;9.900;2023-04-06T11:24:43;100360.97;;;14.37;55.07
14232;BME280;7200;52.194;9.900;2023-04-06T11:27:08;100417.56;;;14.37;56.76
14232;BME280;7200;52.194;9.900;2023-04-06T11:29:34;100368.56;;;14.27;56.81
14232;BME280;7200;52.194;9.900;2023-04-06T11:34:29;100388.09;;;14.26;57.59
14232;BME280;7200;52.194;9.900;2023-04-06T11:36:57;100327.56;;;14.33;55.00
14232;BME280;7200;52.194;9.900;2023-04-06T11:39:24;100438.16;;;14.50;56.19
14232;BME280;7200;52.194;9.900;2023-04-06T11:41:51;100350.22;;;14.56;53.66
14232;BME280;7200;52.194;9.900;2023-04-06T11:44:46;100360.63;;;14.60;54.25
14232;BME280;7200;52.194;9.900;2023-04-06T11:47:13;100253.59;;;14.43;52.75
14232;BME280;7200;52.194;9.900;2023-04-06T11:49:41;100301.53;;;14.57;53.40
14232;BME280;7200;52.194;9.900;2023-04-06T11:52:18;100401.69;;;14.53;54.61
14232;BME280;7200;52.194;9.900;2023-04-06T11:54:45;100424.91;;;14.83;55.55
14232;BME280;7200;52.194;9.900;2023-04-06T11:57:10;100380.09;;;14.93;53.07
14232;BME280;7200;52.194;9.900;2023-04-06T11:59:36;100393.31;;;14.94;54.35
14232;BME280;7200;52.194;9.900;2023-04-06T12:02:02;100466.84;;;15.10;55.44
14232;BME280;7200;52.194;9.900;2023-04-06T12:04:28;100468.94;;;15.21;55.86
14232;BME280;7200;52.194;9.900;2023-04-06T12:06:54;100237.78;;;14.41;52.98
14232;BME280;7200;52.194;9.900;2023-04-06T12:09:19;100222.56;;;14.60;51.26
14232;BME280;7200;52.194;9.900;2023-04-06T12:11:45;100437.50;;;14.79;55.88
14232;BME280;7200;52.194;9.900;2023-04-06T12:14:11;100336.50;;;14.81;53.20
14232;BME280;7200;52.194;9.900;2023-04-06T12:16:37;100309.41;;;14.74;52.38
14232;BME280;7200;52.194;9.900;2023-04-06T12:19:03;100269.06;;;14.68;52.44
14232;BME280;7200;52.194;9.900;2023-04-06T12:21:28;100296.31;;;15.03;50.68
14232;BME280;7200;52.194;9.900;2023-04-06T12:23:56;100475.25;;;15.02;55.72
14232;BME280;7200;52.194;9.900;2023-04-06T12:26:21;100488.94;;;15.10;56.83
14232;BME280;7200;52.194;9.900;2023-04-06T12:28:47;100360.91;;;14.88;55.66
14232;BME280;7200;52.194;9.900;2023-04-06T12:31:16;100325.59;;;15.02;52.30
14232;BME280;7200;52.194;9.900;2023-04-06T12:33:42;100421.34;;;15.00;55.10
14232;BME280;7200;52.194;9.900;2023-04-06T12:36:18;100383.44;;;15.12;53.32
14232;BME280;7200;52.194;9.900;2023-04-06T12:38:46;100333.63;;;15.16;53.07
14232;BME280;7200;52.194;9.900;2023-04-06T12:41:12;100375.72;;;15.40;52.45
14232;BME280;7200;52.194;9.900;2023-04-06T12:43:39;100425.88;;;15.30;54.78
14232;BME280;7200;52.194;9.900;2023-04-06T12:46:05;100336.72;;;15.24;52.79
14232;BME280;7200;52.194;9.900;2023-04-06T12:48:30;100509.47;;;15.40;56.65
14232;BME280;7200;52.194;9.900;2023-04-06T12:50:58;100296.72;;;15.11;53.32
14232;BME280;7200;52.194;9.900;2023-04-06T12:53:24;100371.59;;;15.34;52.31
14232;BME280;7200;52.194;9.900;2023-04-06T12:55:49;100364.41;;;15.36;53.97
14232;BME280;7200;52.194;9.900;2023-04-06T12:58:15;100324.53;;;15.36;51.51
14232;BME280;7200;52.194;9.900;2023-04-06T13:00:41;100450.91;;;15.73;53.36
14232;BME280;7200;52.194;9.900;2023-04-06T13:03:07;100230.66;;;15.05;52.43
14232;BME280;7200;52.194;9.900;2023-04-06T13:05:32;100293.00;;;15.44;50.77